createdAt,value
2019-05-10T00:01:42.564Z,100527.41
2019-05-10T00:04:32.241Z,100520.67
2019-05-10T00:07:21.718Z,100523.38
2019-05-10T00:09:52.315Z,100531.40
2019-05-10T00:12:31.135Z,100540.15
2019-05-10T00:15:02.642Z,100537.57
2019-05-10T00:17:34.244Z,100534.45
2019-05-10T00:20:07.377Z,100536.30
2019-05-10T00:22:38.760Z,100540.40
2019-05-10T00:25:10.227Z,100533.65
2019-05-10T00:27:41.677Z,100525.63
2019-05-10T00:30:13.406Z,100520.86
2019-05-10T00:32:44.913Z,100523.31
2019-05-10T00:35:16.231Z,100525.45
2019-05-10T00:37:47.781Z,100522.52
2019-05-10T00:40:19.052Z,100518.42
2019-05-10T00:42:50.451Z,100518.80
2019-05-10T00:45:21.822Z,100515.20
2019-05-10T00:47:53.146Z,100517.44
2019-05-10T00:50:24.543Z,100511.10
2019-05-10T00:52:56.019Z,100517.81
2019-05-10T00:55:27.419Z,100510.98
2019-05-10T00:57:58.788Z,100508.52
2019-05-10T01:00:30.259Z,100506.03
2019-05-10T01:03:01.753Z,100515.48
2019-05-10T01:05:33.214Z,100516.64
2019-05-10T01:08:04.660Z,100509.92
2019-05-10T01:10:36.012Z,100504.07
2019-05-10T01:13:07.465Z,100498.28
2019-05-10T01:15:38.912Z,100497.89
2019-05-10T01:18:10.362Z,100504.27
2019-05-10T01:20:41.805Z,100503.28
2019-05-10T01:23:13.266Z,100509.83
2019-05-10T01:25:45.732Z,100512.09
2019-05-10T01:28:17.100Z,100510.60
2019-05-10T01:30:48.705Z,100507.06
2019-05-10T01:33:20.181Z,100511.87
2019-05-10T01:35:51.559Z,100513.02
2019-05-10T01:38:23.012Z,100516.58
2019-05-10T01:40:54.537Z,100508.56
2019-05-10T01:43:25.925Z,100510.12
2019-05-10T01:45:57.309Z,100515.46
2019-05-10T01:48:28.762Z,100520.45
2019-05-10T01:51:00.244Z,100529.35
2019-05-10T01:53:31.784Z,100537.84
2019-05-10T01:56:03.220Z,100542.33
2019-05-10T01:58:34.674Z,100540.16
2019-05-10T02:01:06.042Z,100537.23
2019-05-10T02:03:37.389Z,100547.98
2019-05-10T02:06:08.831Z,100548.68
2019-05-10T02:08:40.282Z,100541.05
2019-05-10T02:11:11.627Z,100533.27
2019-05-10T02:13:43.067Z,100529.03
2019-05-10T02:16:14.426Z,100531.95
2019-05-10T02:18:46.998Z,100541.06
2019-05-10T02:21:18.550Z,100545.70
2019-05-10T02:23:50.097Z,100549.81
2019-05-10T02:26:21.564Z,100558.52
2019-05-10T02:28:53.010Z,100557.55
2019-05-10T02:31:25.575Z,100558.16
2019-05-10T02:33:57.147Z,100565.94
2019-05-10T02:36:28.585Z,100565.22
2019-05-10T02:38:59.948Z,100575.97
2019-05-10T02:41:31.309Z,100579.13
2019-05-10T02:44:02.731Z,100581.28
2019-05-10T02:46:34.129Z,100586.86
2019-05-10T02:49:05.524Z,100587.30
2019-05-10T02:51:36.975Z,100590.34
2019-05-10T02:54:08.424Z,100593.84
2019-05-10T02:56:40.029Z,100586.25
2019-05-10T02:59:13.839Z,100580.77
2019-05-10T03:01:46.077Z,100588.41
2019-05-10T03:04:17.498Z,100592.81
2019-05-10T03:06:51.900Z,100591.70
2019-05-10T03:09:26.240Z,100588.03
2019-05-10T03:12:00.501Z,100597.71
2019-05-10T03:14:34.796Z,100603.86
2019-05-10T03:17:08.214Z,100608.85
2019-05-10T03:19:40.936Z,100608.95
2019-05-10T03:22:14.031Z,100613.53
2019-05-10T03:24:45.480Z,100611.75
2019-05-10T03:27:17.013Z,100613.21
2019-05-10T03:29:48.506Z,100617.34
2019-05-10T03:32:19.925Z,100616.38
2019-05-10T03:34:51.382Z,100619.41
2019-05-10T03:37:22.785Z,100615.50
2019-05-10T03:39:54.148Z,100624.87
2019-05-10T03:42:25.651Z,100628.27
2019-05-10T03:44:57.077Z,100620.45
2019-05-10T03:47:28.648Z,100611.83
2019-05-10T03:50:00.092Z,100618.09
2019-05-10T03:52:31.638Z,100622.72
2019-05-10T03:55:03.077Z,100618.48
2019-05-10T03:57:34.532Z,100622.28
2019-05-10T04:00:08.502Z,100625.22
2019-05-10T04:02:39.910Z,100626.79
2019-05-10T04:05:12.193Z,100624.20
2019-05-10T04:07:43.697Z,100617.94
2019-05-10T04:10:15.065Z,100621.13
2019-05-10T04:12:46.648Z,100620.88
2019-05-10T04:15:17.972Z,100622.95
2019-05-10T04:17:50.347Z,100625.52
2019-05-10T04:20:22.076Z,100618.12
2019-05-10T04:22:53.476Z,100619.77
2019-05-10T04:25:24.882Z,100628.25
2019-05-10T04:27:56.405Z,100632.68
2019-05-10T04:30:31.692Z,100627.91
2019-05-10T04:33:00.970Z,100620.28
2019-05-10T04:35:32.338Z,100632.23
2019-05-10T04:38:03.940Z,100626.89
2019-05-10T04:40:35.314Z,100631.52
2019-05-10T04:43:06.785Z,100632.45
2019-05-10T04:45:38.162Z,100630.98
2019-05-10T04:48:09.747Z,100631.75
2019-05-10T04:50:41.216Z,100633.39
2019-05-10T04:53:12.588Z,100629.63
2019-05-10T04:55:44.015Z,100639.69
2019-05-10T04:58:15.403Z,100636.42
2019-05-10T05:00:46.826Z,100638.72
2019-05-10T05:03:18.280Z,100639.63
2019-05-10T05:05:49.645Z,100632.42
2019-05-10T05:08:21.061Z,100636.87
2019-05-10T05:10:53.147Z,100641.06
2019-05-10T05:13:24.596Z,100643.25
2019-05-10T05:15:55.967Z,100640.75
2019-05-10T05:18:27.407Z,100649.55
2019-05-10T05:20:58.949Z,100651.27
2019-05-10T05:23:30.394Z,100651.73
2019-05-10T05:26:01.985Z,100657.59
2019-05-10T05:28:33.483Z,100658.95
2019-05-10T05:31:04.946Z,100659.46
2019-05-10T05:33:36.320Z,100660.06
2019-05-10T05:36:07.834Z,100652.94
2019-05-10T05:38:40.643Z,100655.16
2019-05-10T05:41:12.292Z,100657.01
2019-05-10T05:43:46.197Z,100661.95
2019-05-10T05:46:16.934Z,100658.61
2019-05-10T05:48:51.296Z,100644.19
2019-05-10T05:51:21.522Z,100639.20
2019-05-10T05:53:53.069Z,100631.74
2019-05-10T05:56:24.629Z,100630.52
2019-05-10T05:58:56.126Z,100629.87
2019-05-10T06:01:29.493Z,100629.91
2019-05-10T06:04:06.311Z,100623.02
2019-05-10T06:06:34.003Z,100612.03
2019-05-10T06:09:07.478Z,100611.47
2019-05-10T06:11:38.933Z,100609.82
2019-05-10T06:14:12.595Z,100621.83
2019-05-10T06:16:45.278Z,100634.05
2019-05-10T06:19:20.576Z,100631.05
2019-05-10T06:21:49.690Z,100633.67
2019-05-10T06:24:21.095Z,100630.52
2019-05-10T06:26:52.555Z,100619.57
2019-05-10T06:29:24.088Z,100615.36
2019-05-10T06:31:58.710Z,100618.56
2019-05-10T06:34:32.068Z,100623.81
2019-05-10T06:37:01.862Z,100618.88
2019-05-10T06:39:33.270Z,100630.02
2019-05-10T06:42:04.758Z,100622.77
2019-05-10T06:44:36.163Z,100624.92
2019-05-10T06:47:08.751Z,100626.05
2019-05-10T06:49:48.279Z,100627.84
2019-05-10T06:52:16.265Z,100630.31
2019-05-10T06:54:46.826Z,100612.91
2019-05-10T06:57:19.386Z,100608.41
2019-05-10T06:59:50.717Z,100610.92
2019-05-10T07:02:26.727Z,100617.69
2019-05-10T07:04:55.370Z,100624.14
2019-05-10T07:07:43.150Z,100631.42
2019-05-10T07:10:08.389Z,100628.92
2019-05-10T07:12:32.745Z,100625.14
2019-05-10T07:15:06.588Z,100630.74
2019-05-10T07:17:43.636Z,100628.15
2019-05-10T07:20:11.235Z,100624.27
2019-05-10T07:22:42.804Z,100618.19
2019-05-10T07:25:14.283Z,100619.03
2019-05-10T07:27:45.522Z,100620.44
2019-05-10T07:30:19.819Z,100627.30
2019-05-10T07:32:54.517Z,100632.12
2019-05-10T07:35:24.304Z,100618.88
2019-05-10T07:37:55.748Z,100616.92
2019-05-10T07:40:27.823Z,100623.70
2019-05-10T07:42:59.328Z,100627.84
2019-05-10T07:45:30.854Z,100620.40
2019-05-10T07:48:07.890Z,100620.67
2019-05-10T07:50:35.378Z,100622.54
2019-05-10T07:53:06.837Z,100615.95
2019-05-10T07:55:38.336Z,100625.95
2019-05-10T07:58:09.830Z,100623.30
2019-05-10T08:00:44.498Z,100619.97
2019-05-10T08:03:17.661Z,100610.48
2019-05-10T08:05:54.986Z,100615.41
2019-05-10T08:08:20.720Z,100615.17
2019-05-10T08:10:52.104Z,100613.02
2019-05-10T08:13:25.213Z,100615.67
2019-05-10T08:15:59.442Z,100615.82
2019-05-10T08:18:30.650Z,100611.81
2019-05-10T08:21:10.691Z,100616.70
2019-05-10T08:23:35.204Z,100611.32
2019-05-10T08:26:11.038Z,100612.98
2019-05-10T08:28:42.236Z,100613.40
2019-05-10T08:31:13.211Z,100613.42
2019-05-10T08:33:53.682Z,100609.54
2019-05-10T08:36:18.827Z,100607.27
2019-05-10T08:39:01.516Z,100603.08
2019-05-10T08:41:23.441Z,100603.53
2019-05-10T08:43:54.850Z,100609.35
2019-05-10T08:46:34.982Z,100616.66
2019-05-10T08:49:01.929Z,100611.24
2019-05-10T08:51:34.507Z,100608.18
2019-05-10T08:54:06.014Z,100611.31
2019-05-10T08:56:37.569Z,100610.66
2019-05-10T08:59:14.313Z,100602.34
2019-05-10T09:01:46.935Z,100604.50
2019-05-10T09:04:15.302Z,100604.74
2019-05-10T09:06:47.646Z,100601.36
2019-05-10T09:09:19.908Z,100597.69
2019-05-10T09:11:52.248Z,100596.30
2019-05-10T09:14:24.211Z,100597.25
2019-05-10T09:17:00.524Z,100600.94
2019-05-10T09:19:39.601Z,100606.67
2019-05-10T09:22:02.170Z,100607.03
2019-05-10T09:24:34.857Z,100607.55
2019-05-10T09:27:06.937Z,100605.54
2019-05-10T09:29:38.393Z,100594.52
2019-05-10T09:32:12.406Z,100597.03
2019-05-10T09:34:43.252Z,100588.68
2019-05-10T09:37:17.699Z,100586.59
2019-05-10T09:39:54.924Z,100590.30
2019-05-10T09:42:26.474Z,100590.02
2019-05-10T09:44:54.160Z,100588.03
2019-05-10T09:47:25.643Z,100581.02
2019-05-10T09:49:58.939Z,100576.69
2019-05-10T09:52:30.645Z,100569.58
2019-05-10T09:55:04.069Z,100580.27
2019-05-10T09:57:38.034Z,100574.80
2019-05-10T10:00:10.392Z,100575.13
2019-05-10T10:02:47.852Z,100571.12
2019-05-10T10:05:17.786Z,100569.37
2019-05-10T10:07:48.270Z,100567.95
2019-05-10T10:10:29.012Z,100555.80
2019-05-10T10:12:58.425Z,100554.69
2019-05-10T10:15:33.610Z,100559.78
2019-05-10T10:18:00.315Z,100558.34
2019-05-10T10:20:35.951Z,100558.11
2019-05-10T10:23:07.324Z,100558.78
2019-05-10T10:25:40.880Z,100555.91
2019-05-10T10:28:22.560Z,100550.72
2019-05-10T10:30:50.417Z,100550.56
2019-05-10T10:33:25.373Z,100545.73
2019-05-10T10:35:56.518Z,100550.11
2019-05-10T10:38:30.641Z,100545.75
2019-05-10T10:40:59.860Z,100537.64
2019-05-10T10:43:31.378Z,100540.95
2019-05-10T10:46:02.951Z,100542.81
2019-05-10T10:48:36.835Z,100538.24
2019-05-10T10:51:08.168Z,100542.22
2019-05-10T10:53:39.819Z,100549.13
2019-05-10T10:56:11.125Z,100541.90
2019-05-10T10:58:42.611Z,100546.80
2019-05-10T11:01:21.405Z,100550.03
2019-05-10T11:03:48.931Z,100552.89
2019-05-10T11:06:20.626Z,100548.13
2019-05-10T11:08:52.020Z,100549.33
2019-05-10T11:11:23.510Z,100548.76
2019-05-10T11:14:00.659Z,100544.08
2019-05-10T11:16:27.929Z,100542.72
2019-05-10T11:19:03.687Z,100530.83
2019-05-10T11:21:33.409Z,100527.38
2019-05-10T11:24:10.512Z,100517.23
2019-05-10T11:26:38.015Z,100517.70
2019-05-10T11:29:15.885Z,100508.98
2019-05-10T11:31:42.570Z,100516.08
2019-05-10T11:34:13.944Z,100514.09
2019-05-10T11:36:45.961Z,100512.41
2019-05-10T11:39:26.183Z,100511.94
2019-05-10T11:42:00.971Z,100516.47
2019-05-10T11:44:25.944Z,100509.19
2019-05-10T11:46:57.373Z,100513.96
2019-05-10T11:49:30.750Z,100516.73
2019-05-10T11:52:02.041Z,100515.92
2019-05-10T11:54:33.616Z,100516.47
2019-05-10T11:57:09.775Z,100505.98
2019-05-10T11:59:41.458Z,100504.20
2019-05-10T12:02:33.934Z,100499.18
2019-05-10T12:04:45.451Z,100501.30
2019-05-10T12:07:24.645Z,100502.33
2019-05-10T12:09:53.329Z,100498.27
2019-05-10T12:12:30.645Z,100506.16
2019-05-10T12:14:57.039Z,100497.66
2019-05-10T12:17:28.327Z,100488.02
2019-05-10T12:20:02.555Z,100488.34
2019-05-10T12:22:38.188Z,100483.78
2019-05-10T12:25:32.316Z,100489.08
2019-05-10T12:27:47.874Z,100486.73
2019-05-10T12:30:16.114Z,100485.30
2019-05-10T12:32:56.514Z,100481.77
2019-05-10T12:35:21.491Z,100478.02
2019-05-10T12:37:54.058Z,100470.23
2019-05-10T12:40:25.848Z,100461.13
2019-05-10T12:42:57.269Z,100461.65
2019-05-10T12:45:30.843Z,100465.89
2019-05-10T12:48:01.843Z,100462.78
2019-05-10T12:50:33.196Z,100458.25
2019-05-10T12:53:14.195Z,100458.34
2019-05-10T12:55:37.653Z,100461.19
2019-05-10T12:58:08.925Z,100453.62
2019-05-10T13:00:40.491Z,100451.88
2019-05-10T13:03:13.398Z,100451.35
2019-05-10T13:05:52.734Z,100449.16
2019-05-10T13:08:18.260Z,100446.34
2019-05-10T13:10:50.113Z,100447.25
2019-05-10T13:13:23.696Z,100445.02
2019-05-10T13:15:54.501Z,100445.30
2019-05-10T13:18:48.147Z,100444.16
2019-05-10T13:20:58.846Z,100443.50
2019-05-10T13:23:30.278Z,100447.76
2019-05-10T13:26:01.606Z,100442.61
2019-05-10T13:28:32.978Z,100434.67
2019-05-10T13:31:05.546Z,100436.20
2019-05-10T13:33:41.765Z,100435.70
2019-05-10T13:36:11.876Z,100431.88
2019-05-10T13:38:48.576Z,100432.18
2019-05-10T13:41:17.995Z,100432.37
2019-05-10T13:43:49.461Z,100436.53
2019-05-10T13:46:21.519Z,100435.84
2019-05-10T13:48:52.787Z,100433.33
2019-05-10T13:51:24.157Z,100436.72
2019-05-10T13:53:58.917Z,100439.05
2019-05-10T13:56:28.591Z,100430.31
2019-05-10T13:59:13.790Z,100431.75
2019-05-10T14:01:32.942Z,100433.13
2019-05-10T14:04:04.236Z,100432.48
2019-05-10T14:06:35.627Z,100432.78
2019-05-10T14:09:08.451Z,100431.84
2019-05-10T14:11:41.849Z,100434.40
2019-05-10T14:14:14.666Z,100430.40
2019-05-10T14:16:46.227Z,100436.78
2019-05-10T14:19:23.150Z,100437.02
2019-05-10T14:21:50.654Z,100434.45
2019-05-10T14:24:22.175Z,100432.78
2019-05-10T14:26:57.096Z,100434.13
2019-05-10T14:29:34.341Z,100439.60
2019-05-10T14:32:01.001Z,100444.13
2019-05-10T14:34:32.463Z,100440.00
2019-05-10T14:37:03.763Z,100437.24
2019-05-10T14:39:35.033Z,100447.92
2019-05-10T14:42:09.322Z,100437.17
2019-05-10T14:44:39.725Z,100439.61
2019-05-10T14:47:11.350Z,100443.61
2019-05-10T14:49:47.058Z,100436.72
2019-05-10T14:52:15.957Z,100441.41
2019-05-10T14:54:49.833Z,100443.16
2019-05-10T14:57:20.405Z,100446.16
2019-05-10T14:59:51.697Z,100445.37
2019-05-10T15:02:25.015Z,100444.61
2019-05-10T15:04:56.263Z,100439.70
2019-05-10T15:07:27.712Z,100437.84
2019-05-10T15:10:00.243Z,100440.77
2019-05-10T15:12:32.409Z,100438.17
2019-05-10T15:15:04.246Z,100443.23
2019-05-10T15:17:35.658Z,100442.44
2019-05-10T15:20:08.452Z,100441.66
2019-05-10T15:22:39.911Z,100439.05
2019-05-10T15:25:12.195Z,100443.38
2019-05-10T15:27:43.637Z,100440.97
2019-05-10T15:30:15.220Z,100437.75
2019-05-10T15:32:46.559Z,100430.14
2019-05-10T15:35:17.908Z,100433.46
2019-05-10T15:37:49.315Z,100430.48
2019-05-10T15:40:21.016Z,100427.38
2019-05-10T15:42:52.406Z,100430.61
2019-05-10T15:45:23.728Z,100426.27
2019-05-10T15:47:57.580Z,100424.94
2019-05-10T15:50:32.615Z,100423.62
2019-05-10T15:53:01.619Z,100427.46
2019-05-10T15:55:33.982Z,100425.62
2019-05-10T15:58:05.330Z,100414.02
2019-05-10T16:00:39.338Z,100420.39
2019-05-10T16:03:09.850Z,100416.78
2019-05-10T16:05:43.845Z,100411.88
2019-05-10T16:08:14.281Z,100416.23
2019-05-10T16:10:45.585Z,100414.00
2019-05-10T16:13:23.271Z,100418.72
2019-05-10T16:15:51.757Z,100416.41
2019-05-10T16:18:23.164Z,100419.28
2019-05-10T16:20:54.464Z,100409.27
2019-05-10T16:23:25.766Z,100404.20
2019-05-10T16:25:57.228Z,100411.50
2019-05-10T16:28:28.557Z,100407.96
2019-05-10T16:31:00.118Z,100411.61
2019-05-10T16:33:31.449Z,100408.23
2019-05-10T16:36:02.770Z,100409.64
2019-05-10T16:38:34.247Z,100412.89
2019-05-10T16:41:05.608Z,100405.17
2019-05-10T16:43:37.147Z,100410.91
2019-05-10T16:46:08.495Z,100414.86
2019-05-10T16:48:39.947Z,100409.34
2019-05-10T16:51:12.809Z,100411.20
2019-05-10T16:53:45.983Z,100412.50
2019-05-10T16:56:18.669Z,100412.52
2019-05-10T16:58:53.016Z,100417.53
2019-05-10T17:01:25.736Z,100418.30
2019-05-10T17:04:00.147Z,100415.92
2019-05-10T17:06:29.998Z,100424.41
2019-05-10T17:09:01.486Z,100421.77
2019-05-10T17:11:33.692Z,100426.46
2019-05-10T17:14:05.290Z,100420.33
2019-05-10T17:16:36.815Z,100417.89
2019-05-10T17:19:08.329Z,100423.00
2019-05-10T17:21:39.794Z,100426.16
2019-05-10T17:24:11.461Z,100431.48
2019-05-10T17:26:43.119Z,100423.84
2019-05-10T17:29:14.877Z,100435.19
2019-05-10T17:31:47.749Z,100432.53
2019-05-10T17:34:27.881Z,100436.02
2019-05-10T17:36:57.845Z,100438.42
2019-05-10T17:39:31.450Z,100432.09
2019-05-10T17:42:03.027Z,100435.34
2019-05-10T17:44:32.231Z,100431.97
2019-05-10T17:47:03.527Z,100439.05
2019-05-10T17:49:35.132Z,100440.83
2019-05-10T17:52:06.620Z,100434.89
2019-05-10T17:54:39.358Z,100433.05
2019-05-10T17:57:16.809Z,100438.31
2019-05-10T17:59:46.934Z,100434.28
2019-05-10T18:02:17.540Z,100433.19
2019-05-10T18:04:50.308Z,100430.14
2019-05-10T18:07:21.676Z,100432.55
2019-05-10T18:09:53.297Z,100432.80
2019-05-10T18:12:27.101Z,100436.75
2019-05-10T18:14:58.022Z,100434.89
2019-05-10T18:17:29.550Z,100433.58
2019-05-10T18:20:02.395Z,100440.61
2019-05-10T18:22:41.837Z,100439.61
2019-05-10T18:25:13.186Z,100440.36
2019-05-10T18:27:40.799Z,100436.24
2019-05-10T18:30:12.721Z,100437.98
2019-05-10T18:32:45.370Z,100434.69
2019-05-10T18:35:17.182Z,100432.36
2019-05-10T18:37:53.706Z,100437.59
2019-05-10T18:40:25.399Z,100433.88
2019-05-10T18:42:57.712Z,100435.34
2019-05-10T18:45:29.826Z,100437.37
2019-05-10T18:48:01.663Z,100433.88
2019-05-10T18:50:33.164Z,100434.28
2019-05-10T18:53:04.547Z,100433.83
2019-05-10T18:55:35.967Z,100436.38
2019-05-10T18:58:07.453Z,100433.05
2019-05-10T19:00:40.276Z,100439.11
2019-05-10T19:03:11.697Z,100442.06
2019-05-10T19:05:43.192Z,100440.27
2019-05-10T19:08:14.704Z,100439.81
2019-05-10T19:10:46.228Z,100442.95
2019-05-10T19:13:18.314Z,100442.09
2019-05-10T19:15:53.101Z,100446.06
2019-05-10T19:18:25.423Z,100445.95
2019-05-10T19:20:56.588Z,100445.23
2019-05-10T19:23:28.028Z,100445.55
2019-05-10T19:25:59.604Z,100442.50
2019-05-10T19:28:31.048Z,100452.15
2019-05-10T19:31:02.485Z,100457.37
2019-05-10T19:33:36.162Z,100448.38
2019-05-10T19:36:12.187Z,100449.64
2019-05-10T19:38:40.480Z,100450.03
2019-05-10T19:41:11.981Z,100452.12
2019-05-10T19:43:43.357Z,100452.23
2019-05-10T19:46:14.880Z,100449.38
2019-05-10T19:48:46.277Z,100459.43
2019-05-10T19:51:17.691Z,100462.02
2019-05-10T19:53:49.176Z,100459.17
2019-05-10T19:56:20.745Z,100454.80
2019-05-10T19:58:52.101Z,100456.05
2019-05-10T20:01:23.581Z,100461.19
2019-05-10T20:03:54.953Z,100459.05
2019-05-10T20:06:26.380Z,100460.61
2019-05-10T20:08:57.773Z,100464.13
2019-05-10T20:11:29.195Z,100463.66
2019-05-10T20:14:00.675Z,100470.20
2019-05-10T20:16:32.169Z,100470.15
2019-05-10T20:19:03.774Z,100473.00
2019-05-10T20:21:35.243Z,100467.98
2019-05-10T20:24:08.497Z,100465.95
2019-05-10T20:26:40.033Z,100465.23
2019-05-10T20:29:11.761Z,100466.48
2019-05-10T20:31:43.177Z,100477.48
2019-05-10T20:34:14.623Z,100470.26
2019-05-10T20:36:46.099Z,100480.55
2019-05-10T20:39:17.534Z,100483.48
2019-05-10T20:41:49.146Z,100485.72
2019-05-10T20:44:20.380Z,100485.14
2019-05-10T20:46:51.814Z,100494.09
2019-05-10T20:49:23.188Z,100495.27
2019-05-10T20:51:54.731Z,100493.55
2019-05-10T20:54:26.133Z,100497.61
2019-05-10T20:56:57.593Z,100491.20
2019-05-10T20:59:28.992Z,100494.25
2019-05-10T21:02:00.404Z,100495.07
2019-05-10T21:04:32.934Z,100507.00
2019-05-10T21:07:04.445Z,100508.88
2019-05-10T21:09:36.040Z,100516.12
2019-05-10T21:12:07.545Z,100521.20
2019-05-10T21:14:38.907Z,100516.34
2019-05-10T21:17:10.726Z,100524.13
2019-05-10T21:19:43.275Z,100536.38
2019-05-10T21:22:15.435Z,100532.81
2019-05-10T21:24:46.830Z,100541.50
2019-05-10T21:27:18.305Z,100538.75
2019-05-10T21:29:49.823Z,100543.91
2019-05-10T21:32:21.420Z,100542.86
2019-05-10T21:34:52.908Z,100545.17
2019-05-10T21:37:24.347Z,100549.31
2019-05-10T21:39:55.708Z,100552.80
2019-05-10T21:42:27.310Z,100557.61
2019-05-10T21:44:58.689Z,100554.80
2019-05-10T21:47:30.122Z,100561.14
2019-05-10T21:50:01.593Z,100554.63
2019-05-10T21:52:33.078Z,100558.98
2019-05-10T21:55:04.792Z,100551.77
2019-05-10T21:57:36.198Z,100552.78
2019-05-10T22:00:09.942Z,100554.50
2019-05-10T22:02:43.040Z,100552.78
2019-05-10T22:05:14.499Z,100553.64
2019-05-10T22:07:45.990Z,100556.38
2019-05-10T22:10:17.660Z,100553.30
2019-05-10T22:12:49.284Z,100548.87
2019-05-10T22:15:20.652Z,100551.61
2019-05-10T22:17:52.193Z,100553.89
2019-05-10T22:20:23.598Z,100558.66
2019-05-10T22:22:55.085Z,100556.91
2019-05-10T22:25:26.488Z,100558.55
2019-05-10T22:27:58.106Z,100558.59
2019-05-10T22:30:29.797Z,100554.95
2019-05-10T22:33:01.291Z,100561.98
2019-05-10T22:35:32.813Z,100563.16
2019-05-10T22:38:04.294Z,100559.91
2019-05-10T22:40:35.701Z,100557.62
2019-05-10T22:43:07.288Z,100556.25
2019-05-10T22:45:38.803Z,100559.00
2019-05-10T22:48:10.500Z,100565.45
2019-05-10T22:50:41.843Z,100569.96
2019-05-10T22:53:13.342Z,100572.24
2019-05-10T22:55:44.806Z,100571.27
2019-05-10T22:58:16.292Z,100565.98
2019-05-10T23:00:47.702Z,100566.30
2019-05-10T23:03:24.173Z,100564.27
2019-05-10T23:05:53.070Z,100566.69
2019-05-10T23:08:24.551Z,100572.13
2019-05-10T23:10:55.972Z,100566.64
2019-05-10T23:13:27.475Z,100567.16
2019-05-10T23:15:58.975Z,100567.35
2019-05-10T23:18:30.397Z,100567.16
2019-05-10T23:21:03.515Z,100563.50
2019-05-10T23:23:34.939Z,100561.87
2019-05-10T23:26:06.408Z,100561.08
2019-05-10T23:28:37.811Z,100562.77
2019-05-10T23:31:09.387Z,100562.84
2019-05-10T23:33:41.016Z,100567.42
2019-05-10T23:36:12.373Z,100564.14
2019-05-10T23:38:43.862Z,100559.96
2019-05-10T23:41:15.313Z,100560.05
2019-05-10T23:43:46.748Z,100562.04
2019-05-10T23:46:18.299Z,100562.04
2019-05-10T23:48:49.811Z,100557.54
2019-05-10T23:51:21.143Z,100566.49
2019-05-10T23:53:52.522Z,100569.94
2019-05-10T23:56:23.907Z,100569.58
2019-05-10T23:58:55.303Z,100564.80
